Latest Weather Observations for West Wyalong

IDN60801

Issued at 9:33 pm EST Thursday 29 September 2016 (issued every 30 minutes, with the page automatically refreshed every 10 minutes)

About weather observations | Map of weather stations | Latest weather observations for NSW | Other Formats
Station Details ID: 050017 Name: WEST WYALONG AIRPORT AWS Lat: -33.94 Lon: 147.20 Height: 257.0 m
Data from the previous 72 hours. | See also: Recent months at West Wyalong
Date/Time
EST
Temp
°C
App
Temp
°C
Dew
Point
°C
Rel
Hum
%
Delta-T
°C
Wind Press
QNH
hPa
Press
MSL
hPa
Rain since
9am
mm
Dir  Spd
km/h
Gust
km/h
Spd
kts
Gust
kts
29/09:30pm 10.7 5.7 4.4 65 2.9 NNW 20 32 11 17 997.8 997.6 0.2
29/09:00pm 10.3 5.2 4.2 66 2.8 NNW 20 30 11 16 998.0 997.8 0.2
29/08:30pm 10.7 5.6 4.2 64 2.9 NNW 20 30 11 16 998.0 997.8 0.2
29/08:00pm 11.1 5.9 3.6 60 3.4 NW 20 35 11 19 997.8 997.6 0.2
29/07:30pm 11.0 6.5 4.0 62 3.2 NW 17 24 9 13 997.6 997.4 0.2
29/07:00pm 11.5 6.4 4.3 61 3.3 NW 20 28 11 15 997.3 997.1 0.2
29/06:30pm 11.8 7.4 4.8 62 3.2 WNW 17 24 9 13 996.9 996.6 0.2
29/06:00pm 11.8 7.9 5.2 64 3.1 NW 15 24 8 13 996.5 996.3 0.2
29/05:30pm 11.8 6.5 4.8 62 3.2 WNW 22 39 12 21 996.2 996.0 0.2
29/05:01pm 12.6 6.1 4.6 58 3.7 WNW 28 48 15 26 995.8 995.6 0.0
29/05:00pm 12.6 6.5 4.6 58 3.7 WNW 26 39 14 21 995.8 995.6 0.0
29/04:30pm 15.5 9.9 3.6 45 5.5 NW 22 32 12 17 995.2 995.0 0.0
29/04:00pm 13.9 7.5 3.4 49 4.8 NW 26 39 14 21 995.0 994.8 0.0
29/03:30pm 14.8 9.0 4.2 49 5.0 NW 24 35 13 19 995.2 995.0 0.0
29/03:00pm 15.7 8.8 2.8 42 6.0 NW 28 43 15 23 995.1 994.9 0.0
29/02:30pm 16.4 9.9 2.8 40 6.3 NW 26 41 14 22 995.2 995.0 0.0
29/02:00pm 15.4 9.3 2.9 43 5.8 NW 24 32 13 17 995.4 995.2 0.0
29/01:30pm 16.9 11.4 6.1 49 5.3 NW 24 44 13 24 995.7 995.5 0.0
29/01:00pm 15.6 8.9 3.7 45 5.6 NW 28 44 15 24 996.1 995.9 0.0
29/12:30pm 15.8 9.1 3.6 44 5.7 NW 28 41 15 22 996.3 996.1 0.0
29/12:00pm 15.1 10.2 6.7 57 4.2 WNW 22 33 12 18 996.8 996.5 0.0
29/11:30am 15.1 8.0 3.6 46 5.3 NW 30 46 16 25 996.8 996.5 0.0
29/11:00am 14.8 8.7 6.6 58 4.1 WNW 28 46 15 25 997.0 996.7 0.0
29/10:58am 14.3 8.0 5.9 57 4.1 WNW 28 46 15 25 997.0 996.7 0.0
29/10:30am 13.7 7.2 6.6 62 3.5 NW 30 44 16 24 997.2 997.0 0.0
29/10:00am 13.3 6.3 6.9 65 3.2 NW 33 52 18 28 997.5 997.3 0.0
29/09:30am 12.0 4.6 6.7 70 2.6 NW 35 54 19 29 997.5 997.3 0.0
29/09:24am 12.4 6.3 6.5 67 2.8 NW 28 50 15 27 997.3 997.1 0.0
29/09:00am 12.4 7.8 6.7 68 2.8 NW 20 30 11 16 996.8 996.5 15.8
29/08:30am 12.2 9.4 8.7 79 1.8 NNW 13 17 7 9 996.3 996.1 15.8
29/08:00am 10.9 8.5 8.7 86 1.1 NW 11 17 6 9 996.3 996.1 15.8
29/07:30am 10.4 7.1 8.0 85 1.2 WNW 15 24 8 13 996.0 995.8 15.8
29/07:00am 10.4 4.6 8.0 85 1.2 WNW 28 44 15 24 996.7 996.4 15.4
29/06:41am 11.3 5.6 9.9 91 0.7 W 30 48 16 26 995.6 995.4 14.6
29/06:34am 11.7 5.0 9.8 88 1.0 NW 35 61 19 33 995.6 995.4 14.2
29/06:30am 12.8 7.6 11.7 93 0.6 NNW 30 61 16 33 996.0 995.8 14.0
29/06:29am 13.1 8.5 12.3 95 0.4 NNW 28 61 15 33 995.7 995.5 14.0
29/06:00am 13.3 8.8 12.5 95 0.4 N 28 41 15 22 994.6 994.4 13.0
29/05:30am 12.9 9.8 12.3 96 0.3 N 20 30 11 16 994.8 994.6 12.4
29/05:00am 12.6 9.4 12.0 96 0.3 N 20 30 11 16 995.0 994.8 12.0
29/04:30am 12.2 7.8 11.7 97 0.3 NNE 26 37 14 20 995.3 995.1 12.0
29/04:00am 12.0 7.5 11.5 97 0.3 NNE 26 35 14 19 995.8 995.6 10.4
29/03:30am 11.8 8.0 11.2 96 0.3 NNE 22 30 12 16 996.7 996.4 8.4
29/03:00am 11.9 7.9 10.6 92 0.7 NNE 22 32 12 17 997.4 997.2 4.6
29/02:30am 12.2 7.4 10.3 88 1.0 NNE 26 41 14 22 997.7 997.5 1.8
29/02:00am 12.7 8.6 10.1 84 1.4 NNE 22 32 12 17 998.5 998.3 1.2
29/01:30am 12.5 8.0 9.9 84 1.3 NE 24 32 13 17 999.1 998.9 0.8
29/01:00am 13.2 8.5 9.1 76 2.1 NNE 24 35 13 19 1000.3 1000.1 0.4
29/12:30am 14.3 9.7 8.3 67 3.0 NNE 22 32 12 17 1000.7 1000.5 0.0
29/12:00am 14.2 9.2 8.2 67 3.1 NNE 24 32 13 17 1001.2 1001.0 0.0
 
Date/Time
EST
Temp
°C
App
Temp
°C
Dew
Point
°C
Rel
Hum
%
Delta-T
°C
Wind Press
QNH
hPa
Press
MSL
hPa
Rain since
9am
mm
Dir  Spd
km/h
Gust
km/h
Spd
kts
Gust
kts
28/11:30pm 13.8 9.6 8.2 69 2.8 NE 20 30 11 16 1001.8 1001.6 0.0
28/11:00pm 13.5 8.9 8.1 70 2.7 NNE 22 30 12 16 1002.5 1002.3 0.0
28/10:30pm 12.9 8.9 8.4 74 2.3 NE 19 26 10 14 1003.5 1003.3 0.0
28/10:00pm 13.7 9.7 8.1 69 2.8 NE 19 28 10 15 1004.1 1004.0 0.0
28/09:30pm 12.9 9.3 8.2 73 2.4 NNE 17 20 9 11 1005.1 1004.9 0.0
28/09:00pm 12.7 8.8 8.6 76 2.1 NNE 19 24 10 13 1005.2 1005.0 0.0
28/08:30pm 12.2 9.0 8.5 78 1.9 N 15 19 8 10 1006.0 1005.8 0.0
28/08:00pm 13.1 9.9 8.6 74 2.3 NNE 15 20 8 11 1005.9 1005.7 0.0
28/07:30pm 12.7 9.4 8.2 74 2.3 NE 15 17 8 9 1005.6 1005.4 0.0
28/07:00pm 13.7 10.7 7.9 68 2.9 NE 13 19 7 10 1006.1 1005.9 0.0
28/06:30pm 14.0 11.1 8.0 67 3.0 NNE 13 15 7 8 1006.5 1006.3 0.0
28/06:00pm 15.4 12.0 7.7 60 3.9 NNE 15 20 8 11 1006.8 1006.6 0.0
28/05:30pm 16.6 12.4 8.1 57 4.4 NNE 20 30 11 16 1006.9 1006.7 0.0
28/05:00pm 16.8 11.5 6.6 51 5.1 NNE 24 33 13 18 1006.7 1006.5 0.0
28/04:30pm 17.3 12.4 6.8 50 5.3 NNE 22 32 12 17 1007.0 1006.8 0.0
28/04:00pm 17.6 13.1 6.8 49 5.5 NE 20 32 11 17 1007.3 1007.2 0.0
28/03:30pm 17.4 12.5 6.9 50 5.3 NE 22 33 12 18 1007.6 1007.5 0.0
28/03:00pm 17.4 12.5 6.9 50 5.3 NE 22 30 12 16 1008.4 1008.3 0.0
28/02:30pm 17.4 12.8 6.3 48 5.5 NNE 20 32 11 17 1009.2 1009.0 0.0
28/02:00pm 17.2 12.3 7.0 51 5.2 NE 22 33 12 18 1010.0 1009.8 0.0
28/01:30pm 16.8 12.3 6.3 50 5.2 NE 19 30 10 16 1010.7 1010.6 0.0
28/01:00pm 16.6 12.3 7.0 53 4.8 NNE 19 28 10 15 1011.4 1011.3 0.0
28/12:30pm 16.4 12.3 6.0 50 5.1 NE 17 28 9 15 1012.2 1012.1 0.0
28/12:00pm 16.7 13.1 8.4 58 4.3 NNE 17 24 9 13 1012.7 1012.6 0.0
28/11:30am 16.3 12.4 7.0 54 4.7 NNE 17 24 9 13 1013.5 1013.3 0.0
28/11:00am 15.5 11.7 6.0 53 4.6 NE 15 22 8 12 1013.8 1013.7 0.0
28/10:30am 15.4 12.2 6.7 56 4.3 NNE 13 17 7 9 1014.4 1014.3 0.0
28/10:00am 15.0 11.9 7.3 60 3.8 ENE 13 20 7 11 1014.8 1014.7 0.0
28/09:30am 14.1 11.0 7.2 63 3.4 NE 13 19 7 10 1014.9 1014.8 0.0
28/09:00am 13.2 10.5 7.4 68 2.9 E 11 15 6 8 1014.9 1014.8 0.0
28/08:30am 12.0 9.7 7.3 73 2.3 E 9 11 5 6 1015.2 1015.1 0.0
28/08:00am 11.1 9.3 8.0 81 1.5 ESE 7 11 4 6 1015.1 1015.0 0.0
28/07:30am 8.5 7.8 7.0 90 0.7 CALM 0 0 0 0 1015.1 1015.0 0.0
28/07:00am 6.4 5.4 5.8 96 0.3 CALM 0 0 0 0 1015.3 1015.2 0.0
28/06:30am 3.8 2.4 3.5 98 0.1 CALM 0 0 0 0 1015.1 1015.0 0.0
28/06:00am 2.5 0.8 2.1 97 0.2 CALM 0 0 0 0 1014.9 1014.8 0.0
28/05:30am 2.9 1.3 2.5 97 0.2 CALM 0 0 0 0 1014.9 1014.8 0.0
28/05:00am 3.0 1.4 2.7 98 0.1 CALM 0 0 0 0 1014.6 1014.5 0.0
28/04:30am 3.0 1.4 2.4 96 0.2 CALM 0 0 0 0 1014.5 1014.4 0.0
28/04:00am 3.4 1.9 3.0 97 0.2 CALM 0 0 0 0 1014.3 1014.2 0.0
28/03:30am 3.7 2.3 3.4 98 0.1 CALM 0 0 0 0 1014.3 1014.2 0.0
28/03:00am 3.7 2.3 3.3 97 0.2 CALM 0 0 0 0 1014.1 1014.0 0.0
28/02:30am 3.8 2.3 3.2 96 0.2 CALM 0 0 0 0 1014.3 1014.2 0.0
28/02:00am 4.1 2.7 3.5 96 0.3 CALM 0 0 0 0 1014.5 1014.4 0.0
28/01:30am 4.3 2.9 3.6 95 0.3 CALM 0 0 0 0 1014.7 1014.6 0.0
28/01:00am 4.7 3.4 4.0 95 0.3 CALM 0 0 0 0 1014.9 1014.8 0.0
28/12:30am 5.1 3.9 4.4 95 0.3 CALM 0 0 0 0 1015.1 1015.0 0.0
28/12:00am 5.5 4.4 4.9 96 0.3 CALM 0 0 0 0 1015.1 1015.0 0.0
 
Date/Time
EST
Temp
°C
App
Temp
°C
Dew
Point
°C
Rel
Hum
%
Delta-T
°C
Wind Press
QNH
hPa
Press
MSL
hPa
Rain since
9am
mm
Dir  Spd
km/h
Gust
km/h
Spd
kts
Gust
kts
27/11:30pm 5.4 4.2 4.4 93 0.4 CALM 0 0 0 0 1015.4 1015.3 0.0
27/11:00pm 5.7 3.1 4.3 91 0.6 W 7 9 4 5 1015.4 1015.3 0.0
27/10:30pm 5.8 2.9 4.6 92 0.5 W 9 9 5 5 1015.5 1015.4 0.0
27/10:00pm 6.7 4.3 5.3 91 0.6 W 7 9 4 5 1015.4 1015.3 0.0
27/09:30pm 6.6 4.4 5.1 90 0.7 W 6 7 3 4 1015.4 1015.3 0.0
27/09:00pm 7.7 5.4 5.5 86 1.0 W 7 7 4 4 1015.5 1015.4 0.0
27/08:30pm 8.2 5.5 5.5 83 1.2 W 9 9 5 5 1015.4 1015.3 0.0
27/08:00pm 8.3 7.4 6.1 86 1.0 CALM 0 2 0 1 1015.3 1015.2 0.0
27/07:30pm 8.9 6.3 6.0 82 1.3 WSW 9 11 5 6 1015.2 1015.1 0.0
27/07:00pm 9.6 6.9 5.8 77 1.8 W 9 11 5 6 1015.1 1015.0 0.0
27/06:30pm 11.0 8.3 5.5 69 2.6 W 9 13 5 7 1014.8 1014.7 0.0
27/06:00pm 12.6 9.1 5.5 62 3.4 WSW 13 19 7 10 1014.6 1014.5 0.0
27/05:30pm 13.7 9.5 5.8 59 3.8 WSW 17 22 9 12 1014.4 1014.3 0.0
27/05:00pm 14.1 9.0 6.0 58 3.9 WSW 22 28 12 15 1014.3 1014.2 0.0
27/04:30pm 14.6 9.1 5.9 56 4.2 SW 24 30 13 16 1014.0 1013.9 0.0
27/04:00pm 14.7 9.6 5.8 55 4.3 WSW 22 33 12 18 1013.9 1013.8 0.0
27/03:30pm 13.7 8.2 6.1 60 3.7 WSW 24 32 13 17 1013.8 1013.7 0.0
27/03:00pm 14.0 8.4 5.4 56 4.1 SW 24 35 13 19 1013.7 1013.5 0.0
27/02:30pm 14.0 8.0 5.1 55 4.2 WSW 26 35 14 19 1013.8 1013.7 0.0
27/02:00pm 15.2 9.1 4.9 50 4.9 WSW 26 39 14 21 1013.8 1013.7 0.0
27/01:30pm 14.4 7.9 4.7 52 4.6 WSW 28 41 15 22 1014.0 1013.9 0.0
27/01:00pm 14.0 8.2 4.6 53 4.4 SW 24 37 13 20 1014.0 1013.9 0.0
27/12:30pm 13.3 6.7 4.2 54 4.2 WSW 28 37 15 20 1014.1 1014.0 0.0
27/12:00pm 13.5 7.1 5.2 57 3.9 SW 28 39 15 21 1014.2 1014.1 0.0
27/11:30am 13.1 7.7 4.5 56 4.0 SW 22 35 12 19 1014.5 1014.4 0.0
27/11:00am 13.0 7.2 4.4 56 4.0 SW 24 37 13 20 1014.5 1014.4 0.0
27/10:30am 12.5 5.9 4.0 56 3.9 WSW 28 39 15 21 1014.6 1014.5 0.0
27/10:00am 12.4 6.5 5.6 63 3.2 WSW 26 33 14 18 1014.4 1014.3 0.0
27/09:30am 12.1 5.7 5.3 63 3.2 SW 28 35 15 19 1014.3 1014.2 0.0
27/09:00am 11.6 5.5 4.8 63 3.1 WSW 26 35 14 19 1014.3 1014.2 0.0
27/08:30am 10.8 4.9 5.6 70 2.4 WSW 26 33 14 18 1014.0 1013.9 0.0
27/08:00am 10.4 5.0 6.4 76 1.9 SW 24 33 13 18 1013.8 1013.7 0.0
27/07:30am 10.2 5.8 7.3 82 1.4 WSW 20 26 11 14 1013.4 1013.2 0.0
27/07:00am 9.3 5.5 7.4 88 0.9 WSW 17 24 9 13 1013.0 1012.8 0.0
27/06:30am 9.0 5.2 7.6 91 0.7 WSW 17 24 9 13 1012.5 1012.4 0.0
27/06:00am 9.1 4.9 7.4 89 0.8 WSW 19 24 10 13 1012.0 1011.9 0.0
27/05:30am 8.5 6.0 6.5 87 0.9 W 9 11 5 6 1011.5 1011.4 0.0
27/05:00am 9.6 6.3 6.3 80 1.6 WNW 13 17 7 9 1011.2 1011.1 0.0
27/04:30am 9.7 6.4 6.4 80 1.6 NW 13 19 7 10 1011.0 1010.9 0.0
27/04:00am 8.9 6.0 6.7 86 1.0 NNW 11 13 6 7 1011.0 1010.9 0.0
27/03:30am 9.2 6.4 6.8 85 1.1 NNW 11 15 6 8 1010.7 1010.6 0.0
27/03:00am 9.1 5.9 6.7 85 1.1 NNW 13 17 7 9 1010.9 1010.8 0.0
27/02:30am 8.5 5.6 6.3 86 1.0 NNW 11 13 6 7 1011.3 1011.2 0.0
27/02:00am 9.1 6.2 6.7 85 1.1 NNW 11 17 6 9 1011.7 1011.6 0.0
27/01:30am 8.8 5.9 6.6 86 1.0 NNW 11 15 6 8 1011.9 1011.8 0.0
27/01:00am 9.5 6.3 6.8 83 1.3 NNW 13 17 7 9 1012.5 1012.4 0.0
27/12:30am 9.4 6.1 6.5 82 1.4 N 13 19 7 10 1012.2 1012.1 0.0
27/12:00am 8.8 5.4 5.7 81 1.4 NNW 13 17 7 9 1013.3 1013.1 0.0
 
Date/Time
EST
Temp
°C
App
Temp
°C
Dew
Point
°C
Rel
Hum
%
Delta-T
°C
Wind Press
QNH
hPa
Press
MSL
hPa
Rain since
9am
mm
Dir  Spd
km/h
Gust
km/h
Spd
kts
Gust
kts
26/11:30pm 8.9 5.8 5.5 79 1.6 NNW 11 15 6 8 1013.3 1013.1 0.0
26/11:00pm 9.7 6.7 6.1 78 1.7 NNW 11 15 6 8 1013.7 1013.5 0.0
26/10:30pm 8.9 5.9 6.0 82 1.3 NNW 11 15 6 8 1013.7 1013.5 0.0
26/10:00pm 8.0 5.7 5.6 85 1.1 NNW 7 9 4 5 1013.8 1013.7 0.0

Other Formats:

Comma delimited format used in spreadsheet applications
http://www.bom.gov.au/fwo/IDN60801/IDN60801.95709.axf

JavaScript Object Notation format (JSON) in row-major order
http://www.bom.gov.au/fwo/IDN60801/IDN60801.95709.json